Terminal Aerodrome Forecast
Issued by NWS

Home | Current Version | Previous Version | Text Only | Print | Product List | Glossary On
Versions: 1 2 3 4 5 6 7 8 9 10 11 12 13 14 15
000
FTUS42 TJSJ 311100
TAFJMZ
TAF
TJMZ 311133Z 3112/0112 07005KT P6SM FEW025
     FM311430 25010KT P6SM FEW025 SCT040
     FM311630 VRB12KT P6SM VCTS BKN040CB
      TEMPO 3117/3119 4SM SHRA BKN030
     FM312230 07005KT P6SM SCT025
      AMD NOT SKED TIL 311500=

USA.gov is the U.S. government's official web portal to all federal, state and local government web resources and services.